sensor_id;sensor_type;location;lat;lon;timestamp;temperature;humidity
66140;DHT22;52945;51.908;8.364;2022-12-18T09:31:49;-3275.60;72.50
66140;DHT22;52945;51.908;8.364;2022-12-18T09:34:50;-3275.60;72.70
66140;DHT22;52945;51.908;8.364;2022-12-18T09:37:50;-3275.60;72.90
66140;DHT22;52945;51.908;8.364;2022-12-18T09:40:53;-3275.60;73.10
66140;DHT22;52945;51.908;8.364;2022-12-18T09:44:01;-3275.60;73.20
66140;DHT22;52945;51.908;8.364;2022-12-18T09:50:31;-3275.60;73.30
66140;DHT22;52945;51.908;8.364;2022-12-18T09:53:35;-3275.60;72.90
66140;DHT22;52945;51.908;8.364;2022-12-18T09:56:41;-3275.70;72.90
66140;DHT22;52945;51.908;8.364;2022-12-18T09:59:46;-3275.80;72.50
66140;DHT22;52945;51.908;8.364;2022-12-18T10:02:48;-3275.80;72.50
66140;DHT22;52945;51.908;8.364;2022-12-18T10:06:07;-3275.90;72.50
66140;DHT22;52945;51.908;8.364;2022-12-18T10:09:26;-3276.00;72.20
66140;DHT22;52945;51.908;8.364;2022-12-18T10:12:35;-3276.00;72.20
66140;DHT22;52945;51.908;8.364;2022-12-18T10:22:25;-3276.10;72.30
66140;DHT22;52945;51.908;8.364;2022-12-18T10:26:04;-3276.30;72.10
66140;DHT22;52945;51.908;8.364;2022-12-18T10:29:12;-3276.40;72.20
66140;DHT22;52945;51.908;8.364;2022-12-18T10:32:28;-3276.50;71.80
66140;DHT22;52945;51.908;8.364;2022-12-18T10:35:29;-3276.70;71.30
66140;DHT22;52945;51.908;8.364;2022-12-18T10:38:31;0.00;70.30
66140;DHT22;52945;51.908;8.364;2022-12-18T10:41:32;0.10;70.60
66140;DHT22;52945;51.908;8.364;2022-12-18T10:44:32;0.20;70.30
66140;DHT22;52945;51.908;8.364;2022-12-18T10:47:33;0.30;69.80
66140;DHT22;52945;51.908;8.364;2022-12-18T10:50:36;0.50;69.10
66140;DHT22;52945;51.908;8.364;2022-12-18T10:53:37;0.50;68.60
66140;DHT22;52945;51.908;8.364;2022-12-18T10:56:40;0.60;68.50
66140;DHT22;52945;51.908;8.364;2022-12-18T10:59:56;0.60;67.70
66140;DHT22;52945;51.908;8.364;2022-12-18T11:02:57;0.60;67.00
66140;DHT22;52945;51.908;8.364;2022-12-18T11:06:12;0.80;66.70
66140;DHT22;52945;51.908;8.364;2022-12-18T11:09:22;0.80;67.00
66140;DHT22;52945;51.908;8.364;2022-12-18T11:12:22;0.80;66.60
66140;DHT22;52945;51.908;8.364;2022-12-18T11:15:29;0.80;66.20
66140;DHT22;52945;51.908;8.364;2022-12-18T11:18:34;0.90;66.50
66140;DHT22;52945;51.908;8.364;2022-12-18T11:21:42;0.90;66.70
66140;DHT22;52945;51.908;8.364;2022-12-18T11:24:43;0.90;66.60
66140;DHT22;52945;51.908;8.364;2022-12-18T11:27:52;0.90;66.30
66140;DHT22;52945;51.908;8.364;2022-12-18T11:34:24;1.00;65.50
66140;DHT22;52945;51.908;8.364;2022-12-18T11:37:28;1.10;65.40
66140;DHT22;52945;51.908;8.364;2022-12-18T11:40:35;1.20;65.40
66140;DHT22;52945;51.908;8.364;2022-12-18T11:46:56;1.20;64.50
66140;DHT22;52945;51.908;8.364;2022-12-18T11:50:01;1.30;63.60
66140;DHT22;52945;51.908;8.364;2022-12-18T11:53:02;1.40;63.70
66140;DHT22;52945;51.908;8.364;2022-12-18T12:09:48;1.50;62.60
66140;DHT22;52945;51.908;8.364;2022-12-18T12:13:06;1.60;62.20
66140;DHT22;52945;51.908;8.364;2022-12-18T12:19:43;1.60;62.60
66140;DHT22;52945;51.908;8.364;2022-12-18T12:26:10;1.70;61.60
66140;DHT22;52945;51.908;8.364;2022-12-18T12:39:25;1.70;59.40
66140;DHT22;52945;51.908;8.364;2022-12-18T12:42:34;1.70;60.00
66140;DHT22;52945;51.908;8.364;2022-12-18T12:46:08;1.70;59.60
66140;DHT22;52945;51.908;8.364;2022-12-18T12:49:13;1.80;59.90
66140;DHT22;52945;51.908;8.364;2022-12-18T12:52:22;1.80;60.10
66140;DHT22;52945;51.908;8.364;2022-12-18T12:55:27;1.80;59.20
66140;DHT22;52945;51.908;8.364;2022-12-18T12:58:38;1.80;59.70
66140;DHT22;52945;51.908;8.364;2022-12-18T13:01:52;1.70;59.50
66140;DHT22;52945;51.908;8.364;2022-12-18T13:08:06;1.80;59.10
66140;DHT22;52945;51.908;8.364;2022-12-18T13:11:29;1.70;59.10
66140;DHT22;52945;51.908;8.364;2022-12-18T13:14:49;1.80;58.90
66140;DHT22;52945;51.908;8.364;2022-12-18T13:21:24;1.80;59.20
66140;DHT22;52945;51.908;8.364;2022-12-18T13:24:30;1.70;58.10
66140;DHT22;52945;51.908;8.364;2022-12-18T13:30:53;1.80;58.00
66140;DHT22;52945;51.908;8.364;2022-12-18T13:43:49;1.80;58.00
66140;DHT22;52945;51.908;8.364;2022-12-18T13:46:51;1.80;57.50
66140;DHT22;52945;51.908;8.364;2022-12-18T13:49:52;1.80;57.20
66140;DHT22;52945;51.908;8.364;2022-12-18T13:52:53;1.80;57.00
66140;DHT22;52945;51.908;8.364;2022-12-18T13:55:54;1.80;56.60
66140;DHT22;52945;51.908;8.364;2022-12-18T14:02:17;1.90;56.80
66140;DHT22;52945;51.908;8.364;2022-12-18T14:05:26;1.90;56.70
66140;DHT22;52945;51.908;8.364;2022-12-18T14:08:32;1.80;56.70
66140;DHT22;52945;51.908;8.364;2022-12-18T14:11:33;1.90;56.90
66140;DHT22;52945;51.908;8.364;2022-12-18T14:14:34;1.90;56.90
66140;DHT22;52945;51.908;8.364;2022-12-18T14:17:36;1.90;56.70
66140;DHT22;52945;51.908;8.364;2022-12-18T14:20:37;1.80;56.40
66140;DHT22;52945;51.908;8.364;2022-12-18T14:23:41;1.90;56.00
66140;DHT22;52945;51.908;8.364;2022-12-18T14:26:43;1.80;55.70
66140;DHT22;52945;51.908;8.364;2022-12-18T14:29:44;1.90;55.50
66140;DHT22;52945;51.908;8.364;2022-12-18T14:33:21;1.80;54.30
66140;DHT22;52945;51.908;8.364;2022-12-18T14:36:27;1.80;55.10
66140;DHT22;52945;51.908;8.364;2022-12-18T14:39:28;1.90;55.20
66140;DHT22;52945;51.908;8.364;2022-12-18T14:42:29;1.80;54.30
66140;DHT22;52945;51.908;8.364;2022-12-18T14:45:37;1.90;54.90
66140;DHT22;52945;51.908;8.364;2022-12-18T14:48:42;1.90;54.80
66140;DHT22;52945;51.908;8.364;2022-12-18T14:51:55;1.90;54.70
66140;DHT22;52945;51.908;8.364;2022-12-18T14:54:56;1.90;54.10
66140;DHT22;52945;51.908;8.364;2022-12-18T14:57:57;1.90;54.30
66140;DHT22;52945;51.908;8.364;2022-12-18T15:00:58;1.90;54.30
66140;DHT22;52945;51.908;8.364;2022-12-18T15:04:00;1.90;54.60
66140;DHT22;52945;51.908;8.364;2022-12-18T15:10:20;1.90;54.20
66140;DHT22;52945;51.908;8.364;2022-12-18T15:13:23;1.90;54.80
66140;DHT22;52945;51.908;8.364;2022-12-18T15:16:24;1.90;55.10
66140;DHT22;52945;51.908;8.364;2022-12-18T15:19:34;1.90;55.30
66140;DHT22;52945;51.908;8.364;2022-12-18T15:22:36;1.90;55.20
66140;DHT22;52945;51.908;8.364;2022-12-18T15:25:37;1.90;55.20
66140;DHT22;52945;51.908;8.364;2022-12-18T15:28:49;1.80;54.80
66140;DHT22;52945;51.908;8.364;2022-12-18T15:32:04;1.80;55.00
66140;DHT22;52945;51.908;8.364;2022-12-18T15:35:21;1.80;54.80
66140;DHT22;52945;51.908;8.364;2022-12-18T15:38:22;1.90;55.30
66140;DHT22;52945;51.908;8.364;2022-12-18T15:41:23;1.80;55.20
66140;DHT22;52945;51.908;8.364;2022-12-18T15:44:24;1.80;55.50
66140;DHT22;52945;51.908;8.364;2022-12-18T15:47:25;1.90;55.30
66140;DHT22;52945;51.908;8.364;2022-12-18T15:50:26;1.80;55.00
66140;DHT22;52945;51.908;8.364;2022-12-18T15:53:36;1.80;55.20
66140;DHT22;52945;51.908;8.364;2022-12-18T15:56:36;1.80;55.20
66140;DHT22;52945;51.908;8.364;2022-12-18T15:59:56;1.70;54.70
66140;DHT22;52945;51.908;8.364;2022-12-18T16:02:59;1.80;55.00
66140;DHT22;52945;51.908;8.364;2022-12-18T16:06:00;1.70;54.10
66140;DHT22;52945;51.908;8.364;2022-12-18T16:09:02;1.70;54.70
66140;DHT22;52945;51.908;8.364;2022-12-18T16:12:03;1.70;54.40
66140;DHT22;52945;51.908;8.364;2022-12-18T16:15:05;1.80;54.60
66140;DHT22;52945;51.908;8.364;2022-12-18T16:18:06;1.80;54.20
66140;DHT22;52945;51.908;8.364;2022-12-18T16:21:07;1.80;54.20
66140;DHT22;52945;51.908;8.364;2022-12-18T16:24:30;1.70;53.70
66140;DHT22;52945;51.908;8.364;2022-12-18T16:27:31;1.80;53.90
66140;DHT22;52945;51.908;8.364;2022-12-18T16:30:32;1.80;54.20
66140;DHT22;52945;51.908;8.364;2022-12-18T16:33:32;1.90;54.00
66140;DHT22;52945;51.908;8.364;2022-12-18T16:36:33;1.80;53.70
66140;DHT22;52945;51.908;8.364;2022-12-18T16:39:34;1.90;54.20
66140;DHT22;52945;51.908;8.364;2022-12-18T16:42:36;1.80;53.80
66140;DHT22;52945;51.908;8.364;2022-12-18T16:45:37;1.90;54.00
66140;DHT22;52945;51.908;8.364;2022-12-18T16:48:37;1.90;54.30
66140;DHT22;52945;51.908;8.364;2022-12-18T16:51:38;1.80;53.60
66140;DHT22;52945;51.908;8.364;2022-12-18T16:54:39;1.80;54.00
66140;DHT22;52945;51.908;8.364;2022-12-18T16:57:40;1.80;54.00
66140;DHT22;52945;51.908;8.364;2022-12-18T17:00:40;1.80;53.80
66140;DHT22;52945;51.908;8.364;2022-12-18T17:03:41;1.70;53.70
66140;DHT22;52945;51.908;8.364;2022-12-18T17:06:43;1.70;53.30
66140;DHT22;52945;51.908;8.364;2022-12-18T17:09:44;1.80;53.50
66140;DHT22;52945;51.908;8.364;2022-12-18T17:12:45;1.80;53.30
66140;DHT22;52945;51.908;8.364;2022-12-18T17:15:45;1.80;53.10
66140;DHT22;52945;51.908;8.364;2022-12-18T17:18:46;1.80;52.90
66140;DHT22;52945;51.908;8.364;2022-12-18T17:21:48;1.80;53.20
66140;DHT22;52945;51.908;8.364;2022-12-18T17:24:49;1.90;53.30
66140;DHT22;52945;51.908;8.364;2022-12-18T17:27:50;1.90;53.00
66140;DHT22;52945;51.908;8.364;2022-12-18T17:30:52;2.00;53.50
66140;DHT22;52945;51.908;8.364;2022-12-18T17:33:52;1.80;53.40
66140;DHT22;52945;51.908;8.364;2022-12-18T17:36:53;1.70;53.30
66140;DHT22;52945;51.908;8.364;2022-12-18T17:39:54;1.70;53.30
66140;DHT22;52945;51.908;8.364;2022-12-18T17:42:54;1.70;53.30
66140;DHT22;52945;51.908;8.364;2022-12-18T17:45:55;1.70;53.00
66140;DHT22;52945;51.908;8.364;2022-12-18T17:49:00;1.70;53.20
66140;DHT22;52945;51.908;8.364;2022-12-18T17:52:02;1.70;53.20
66140;DHT22;52945;51.908;8.364;2022-12-18T17:55:02;1.80;53.30
66140;DHT22;52945;51.908;8.364;2022-12-18T17:58:03;1.60;53.10
66140;DHT22;52945;51.908;8.364;2022-12-18T18:01:04;1.50;53.20
66140;DHT22;52945;51.908;8.364;2022-12-18T18:04:05;1.60;53.60
66140;DHT22;52945;51.908;8.364;2022-12-18T18:07:06;1.50;53.70
66140;DHT22;52945;51.908;8.364;2022-12-18T18:10:07;1.60;53.70
66140;DHT22;52945;51.908;8.364;2022-12-18T18:13:17;1.50;54.10
66140;DHT22;52945;51.908;8.364;2022-12-18T18:16:41;1.50;54.30
66140;DHT22;52945;51.908;8.364;2022-12-18T18:19:41;1.50;54.30
66140;DHT22;52945;51.908;8.364;2022-12-18T18:22:42;1.50;54.20
66140;DHT22;52945;51.908;8.364;2022-12-18T18:25:43;1.50;54.50
66140;DHT22;52945;51.908;8.364;2022-12-18T18:28:43;1.50;54.60
66140;DHT22;52945;51.908;8.364;2022-12-18T18:31:44;1.40;54.80
66140;DHT22;52945;51.908;8.364;2022-12-18T18:34:44;1.40;55.00
66140;DHT22;52945;51.908;8.364;2022-12-18T18:37:47;1.40;55.40
66140;DHT22;52945;51.908;8.364;2022-12-18T18:40:48;1.50;55.60
66140;DHT22;52945;51.908;8.364;2022-12-18T18:43:48;1.50;55.90
66140;DHT22;52945;51.908;8.364;2022-12-18T18:46:54;1.30;56.50
66140;DHT22;52945;51.908;8.364;2022-12-18T18:49:55;1.50;56.80
66140;DHT22;52945;51.908;8.364;2022-12-18T18:52:55;1.40;57.00
66140;DHT22;52945;51.908;8.364;2022-12-18T18:55:59;1.40;57.40
66140;DHT22;52945;51.908;8.364;2022-12-18T18:58:59;1.30;57.60
66140;DHT22;52945;51.908;8.364;2022-12-18T19:02:00;1.50;57.80
66140;DHT22;52945;51.908;8.364;2022-12-18T19:05:00;1.50;58.00
66140;DHT22;52945;51.908;8.364;2022-12-18T19:08:01;1.40;58.40
66140;DHT22;52945;51.908;8.364;2022-12-18T19:11:03;1.20;58.90
66140;DHT22;52945;51.908;8.364;2022-12-18T19:14:06;1.30;59.00
66140;DHT22;52945;51.908;8.364;2022-12-18T19:17:07;1.30;59.20
66140;DHT22;52945;51.908;8.364;2022-12-18T19:20:08;1.30;59.30
66140;DHT22;52945;51.908;8.364;2022-12-18T19:23:09;1.30;59.40
66140;DHT22;52945;51.908;8.364;2022-12-18T19:26:10;1.30;59.70
66140;DHT22;52945;51.908;8.364;2022-12-18T19:29:11;1.30;59.60
66140;DHT22;52945;51.908;8.364;2022-12-18T19:32:14;1.30;59.90
66140;DHT22;52945;51.908;8.364;2022-12-18T19:35:14;1.30;60.00
66140;DHT22;52945;51.908;8.364;2022-12-18T19:38:15;1.30;60.10
66140;DHT22;52945;51.908;8.364;2022-12-18T19:41:16;1.30;60.20
66140;DHT22;52945;51.908;8.364;2022-12-18T19:44:17;1.30;60.10
66140;DHT22;52945;51.908;8.364;2022-12-18T19:47:17;1.20;60.20
66140;DHT22;52945;51.908;8.364;2022-12-18T19:50:18;1.20;60.20
66140;DHT22;52945;51.908;8.364;2022-12-18T19:53:19;1.20;60.40
66140;DHT22;52945;51.908;8.364;2022-12-18T19:56:21;1.20;60.40
66140;DHT22;52945;51.908;8.364;2022-12-18T19:59:22;1.20;60.40
66140;DHT22;52945;51.908;8.364;2022-12-18T20:02:22;1.10;60.80
66140;DHT22;52945;51.908;8.364;2022-12-18T20:05:23;1.10;60.90
66140;DHT22;52945;51.908;8.364;2022-12-18T20:08:24;1.10;61.20
66140;DHT22;52945;51.908;8.364;2022-12-18T20:11:25;1.10;60.90
66140;DHT22;52945;51.908;8.364;2022-12-18T20:14:26;1.20;60.90
66140;DHT22;52945;51.908;8.364;2022-12-18T20:17:26;1.20;61.00
66140;DHT22;52945;51.908;8.364;2022-12-18T20:20:27;1.20;61.00
66140;DHT22;52945;51.908;8.364;2022-12-18T20:23:28;1.20;61.10
66140;DHT22;52945;51.908;8.364;2022-12-18T20:26:29;1.10;61.40
66140;DHT22;52945;51.908;8.364;2022-12-18T20:29:29;1.10;61.50
66140;DHT22;52945;51.908;8.364;2022-12-18T20:32:30;1.20;61.50
66140;DHT22;52945;51.908;8.364;2022-12-18T20:35:31;1.30;61.30
66140;DHT22;52945;51.908;8.364;2022-12-18T20:38:33;1.30;61.30
66140;DHT22;52945;51.908;8.364;2022-12-18T20:41:34;1.20;61.50
66140;DHT22;52945;51.908;8.364;2022-12-18T20:44:34;1.20;61.80
66140;DHT22;52945;51.908;8.364;2022-12-18T20:47:35;1.20;61.90
66140;DHT22;52945;51.908;8.364;2022-12-18T20:50:36;1.20;62.00
66140;DHT22;52945;51.908;8.364;2022-12-18T20:53:37;1.20;62.00
66140;DHT22;52945;51.908;8.364;2022-12-18T20:56:37;1.20;61.90
66140;DHT22;52945;51.908;8.364;2022-12-18T20:59:38;1.20;62.10
66140;DHT22;52945;51.908;8.364;2022-12-18T21:02:39;1.30;62.10
66140;DHT22;52945;51.908;8.364;2022-12-18T21:05:39;1.40;62.10
66140;DHT22;52945;51.908;8.364;2022-12-18T21:08:40;1.30;62.10
66140;DHT22;52945;51.908;8.364;2022-12-18T21:11:41;1.20;62.20
66140;DHT22;52945;51.908;8.364;2022-12-18T21:15:00;1.10;62.80
66140;DHT22;52945;51.908;8.364;2022-12-18T21:18:02;1.20;62.70
66140;DHT22;52945;51.908;8.364;2022-12-18T21:21:02;1.10;62.90
66140;DHT22;52945;51.908;8.364;2022-12-18T21:24:03;1.10;63.30
66140;DHT22;52945;51.908;8.364;2022-12-18T21:27:03;1.20;63.10
66140;DHT22;52945;51.908;8.364;2022-12-18T21:30:05;1.20;63.00
66140;DHT22;52945;51.908;8.364;2022-12-18T21:33:05;1.20;63.10
66140;DHT22;52945;51.908;8.364;2022-12-18T21:36:06;1.30;63.10
66140;DHT22;52945;51.908;8.364;2022-12-18T21:39:07;1.30;63.20
66140;DHT22;52945;51.908;8.364;2022-12-18T21:42:10;1.30;63.30
66140;DHT22;52945;51.908;8.364;2022-12-18T21:45:29;1.20;63.40
66140;DHT22;52945;51.908;8.364;2022-12-18T21:48:30;1.30;63.30
66140;DHT22;52945;51.908;8.364;2022-12-18T21:51:31;1.30;63.40
66140;DHT22;52945;51.908;8.364;2022-12-18T21:54:33;1.40;63.40
66140;DHT22;52945;51.908;8.364;2022-12-18T21:57:34;1.40;63.40
66140;DHT22;52945;51.908;8.364;2022-12-18T22:00:34;1.50;63.40
66140;DHT22;52945;51.908;8.364;2022-12-18T22:03:35;1.50;63.30
66140;DHT22;52945;51.908;8.364;2022-12-18T22:06:36;1.50;63.30
66140;DHT22;52945;51.908;8.364;2022-12-18T22:09:37;1.50;63.40
66140;DHT22;52945;51.908;8.364;2022-12-18T22:12:37;1.50;63.50
66140;DHT22;52945;51.908;8.364;2022-12-18T22:15:38;1.50;63.40
66140;DHT22;52945;51.908;8.364;2022-12-18T22:18:38;1.60;63.50
66140;DHT22;52945;51.908;8.364;2022-12-18T22:21:42;1.60;63.40
66140;DHT22;52945;51.908;8.364;2022-12-18T22:24:42;1.60;63.40
66140;DHT22;52945;51.908;8.364;2022-12-18T22:27:43;1.60;63.60
66140;DHT22;52945;51.908;8.364;2022-12-18T22:31:04;1.70;63.50
66140;DHT22;52945;51.908;8.364;2022-12-18T22:34:06;1.60;64.10
66140;DHT22;52945;51.908;8.364;2022-12-18T22:37:08;1.70;65.00
66140;DHT22;52945;51.908;8.364;2022-12-18T22:40:10;1.70;65.40
66140;DHT22;52945;51.908;8.364;2022-12-18T22:43:16;1.70;65.90
66140;DHT22;52945;51.908;8.364;2022-12-18T22:46:24;1.70;66.60
66140;DHT22;52945;51.908;8.364;2022-12-18T22:49:24;1.70;67.00
66140;DHT22;52945;51.908;8.364;2022-12-18T22:52:25;1.70;67.50
66140;DHT22;52945;51.908;8.364;2022-12-18T22:55:26;1.70;67.80
66140;DHT22;52945;51.908;8.364;2022-12-18T22:58:26;1.80;67.80
66140;DHT22;52945;51.908;8.364;2022-12-18T23:01:28;1.70;68.10
66140;DHT22;52945;51.908;8.364;2022-12-18T23:04:30;1.70;68.40
66140;DHT22;52945;51.908;8.364;2022-12-18T23:07:31;1.70;68.80
66140;DHT22;52945;51.908;8.364;2022-12-18T23:10:31;1.70;68.90
66140;DHT22;52945;51.908;8.364;2022-12-18T23:13:33;1.80;69.00
66140;DHT22;52945;51.908;8.364;2022-12-18T23:16:33;1.70;69.50
66140;DHT22;52945;51.908;8.364;2022-12-18T23:19:34;1.70;69.70
66140;DHT22;52945;51.908;8.364;2022-12-18T23:22:35;1.80;69.80
66140;DHT22;52945;51.908;8.364;2022-12-18T23:25:36;1.80;69.90
66140;DHT22;52945;51.908;8.364;2022-12-18T23:28:37;1.80;70.10
66140;DHT22;52945;51.908;8.364;2022-12-18T23:31:38;1.80;70.20
66140;DHT22;52945;51.908;8.364;2022-12-18T23:34:39;1.70;70.50
66140;DHT22;52945;51.908;8.364;2022-12-18T23:37:40;1.80;70.70
66140;DHT22;52945;51.908;8.364;2022-12-18T23:40:40;1.80;70.60
66140;DHT22;52945;51.908;8.364;2022-12-18T23:43:41;1.80;70.90
66140;DHT22;52945;51.908;8.364;2022-12-18T23:46:42;1.90;71.10
66140;DHT22;52945;51.908;8.364;2022-12-18T23:49:42;1.90;71.30
66140;DHT22;52945;51.908;8.364;2022-12-18T23:52:43;1.90;71.70
66140;DHT22;52945;51.908;8.364;2022-12-18T23:55:44;1.80;71.90
66140;DHT22;52945;51.908;8.364;2022-12-18T23:58:45;1.80;72.40
